createdAt,value
2022-10-08T00:01:31.313Z,18.85
2022-10-08T00:04:00.067Z,18.85
2022-10-08T00:06:31.235Z,18.85
2022-10-08T00:09:02.270Z,18.83
2022-10-08T00:11:35.569Z,18.83
2022-10-08T00:14:04.954Z,18.81
2022-10-08T00:16:35.166Z,18.81
2022-10-08T00:19:05.846Z,18.81
2022-10-08T00:21:36.017Z,18.79
2022-10-08T00:24:06.065Z,18.79
2022-10-08T00:26:42.567Z,18.77
2022-10-08T00:29:13.611Z,18.76
2022-10-08T00:31:44.426Z,18.77
2022-10-08T00:34:16.785Z,18.77
2022-10-08T00:36:45.739Z,18.75
2022-10-08T00:39:15.317Z,18.75
2022-10-08T00:41:46.980Z,18.74
2022-10-08T00:44:55.031Z,18.73
2022-10-08T00:47:31.242Z,18.72
2022-10-08T00:50:01.356Z,18.71
2022-10-08T00:52:33.620Z,18.69
2022-10-08T00:55:06.390Z,18.69
2022-10-08T00:57:37.196Z,18.67
2022-10-08T01:00:08.657Z,18.66
2022-10-08T01:02:37.036Z,18.66
2022-10-08T01:05:06.859Z,18.65
2022-10-08T01:07:40.390Z,18.62
2022-10-08T01:10:13.134Z,18.62
2022-10-08T01:12:48.367Z,18.62
2022-10-08T01:15:23.624Z,18.59
2022-10-08T01:17:59.751Z,18.59
2022-10-08T01:20:46.043Z,18.59
2022-10-08T01:23:41.205Z,18.57
2022-10-08T01:26:22.773Z,18.55
2022-10-08T01:28:57.200Z,18.56
2022-10-08T01:31:29.154Z,18.55
2022-10-08T01:34:00.407Z,18.52
2022-10-08T01:36:33.873Z,18.53
2022-10-08T01:39:06.325Z,18.53
2022-10-08T01:41:35.242Z,18.52
2022-10-08T01:44:07.819Z,18.50
2022-10-08T01:46:38.281Z,18.50
2022-10-08T01:49:10.442Z,18.50
2022-10-08T01:51:42.318Z,18.48
2022-10-08T01:54:11.820Z,18.47
2022-10-08T01:56:41.165Z,18.48
2022-10-08T01:59:14.294Z,18.48
2022-10-08T02:01:53.594Z,18.46
2022-10-08T02:04:34.581Z,18.45
2022-10-08T02:07:07.370Z,18.45
2022-10-08T02:09:38.226Z,18.44
2022-10-08T02:12:07.402Z,18.43
2022-10-08T02:14:39.093Z,18.42
2022-10-08T02:17:17.117Z,18.42
2022-10-08T02:19:50.463Z,18.41
2022-10-08T02:22:20.811Z,18.41
2022-10-08T02:24:53.578Z,18.39
2022-10-08T02:27:27.733Z,18.38
2022-10-08T02:30:04.049Z,18.37
2022-10-08T02:32:36.775Z,18.37
2022-10-08T02:35:09.081Z,18.37
2022-10-08T02:37:41.364Z,18.37
2022-10-08T02:40:12.639Z,18.34
2022-10-08T02:42:44.750Z,18.34
2022-10-08T02:45:17.919Z,18.33
2022-10-08T02:47:48.933Z,18.33
2022-10-08T02:50:21.408Z,18.33
2022-10-08T02:52:51.045Z,18.32
2022-10-08T02:55:25.679Z,18.31
2022-10-08T02:57:59.036Z,18.28
2022-10-08T03:00:35.302Z,18.30
2022-10-08T03:03:09.487Z,18.29
2022-10-08T03:05:39.858Z,18.28
2022-10-08T03:08:09.773Z,18.28
2022-10-08T03:10:39.520Z,18.27
2022-10-08T03:13:08.924Z,18.28
2022-10-08T03:15:39.865Z,18.27
2022-10-08T03:18:10.258Z,18.27
2022-10-08T03:20:45.462Z,18.26
2022-10-08T03:23:15.828Z,18.25
2022-10-08T03:25:44.242Z,18.23
2022-10-08T03:28:12.952Z,18.23
2022-10-08T03:30:42.894Z,18.23
2022-10-08T03:33:11.456Z,18.22
2022-10-08T03:35:45.690Z,18.21
2022-10-08T03:38:15.423Z,18.21
2022-10-08T03:40:44.039Z,18.19
2022-10-08T03:43:12.495Z,18.19
2022-10-08T03:45:50.682Z,18.20
2022-10-08T03:48:19.751Z,18.18
2022-10-08T03:50:53.019Z,18.18
2022-10-08T03:53:21.702Z,18.17
2022-10-08T03:55:50.617Z,18.17
2022-10-08T03:58:19.242Z,18.16
2022-10-08T04:00:59.056Z,18.14
2022-10-08T04:03:28.288Z,18.13
2022-10-08T04:05:57.080Z,18.14
2022-10-08T04:08:25.845Z,18.13
2022-10-08T04:10:54.547Z,18.13
2022-10-08T04:13:23.395Z,18.12
2022-10-08T04:15:51.861Z,18.12
2022-10-08T04:18:21.547Z,18.11
2022-10-08T04:20:50.012Z,18.09
2022-10-08T04:23:18.537Z,18.09
2022-10-08T04:25:50.832Z,18.09
2022-10-08T04:28:19.705Z,18.09
2022-10-08T04:30:56.358Z,18.08
2022-10-08T04:33:26.418Z,18.09
2022-10-08T04:35:59.731Z,18.08
2022-10-08T04:38:29.083Z,18.06
2022-10-08T04:41:05.295Z,18.05
2022-10-08T04:43:34.296Z,18.06
2022-10-08T04:46:03.188Z,18.04
2022-10-08T04:48:32.995Z,18.04
2022-10-08T04:51:06.849Z,18.02
2022-10-08T04:53:38.050Z,18.02
2022-10-08T04:56:11.356Z,18.01
2022-10-08T04:58:39.909Z,18.02
2022-10-08T05:01:11.008Z,18.01
2022-10-08T05:03:41.992Z,18.00
2022-10-08T05:06:11.145Z,17.99
2022-10-08T05:08:39.937Z,17.98
2022-10-08T05:11:08.933Z,17.99
2022-10-08T05:13:37.786Z,17.99
2022-10-08T05:16:07.193Z,17.97
2022-10-08T05:18:36.376Z,17.97
2022-10-08T05:21:08.714Z,17.97
2022-10-08T05:23:37.375Z,17.95
2022-10-08T05:26:13.338Z,17.96
2022-10-08T05:28:41.899Z,17.95
2022-10-08T05:31:10.644Z,17.94
2022-10-08T05:33:39.456Z,17.93
2022-10-08T05:36:10.661Z,17.94
2022-10-08T05:38:39.212Z,17.93
2022-10-08T05:41:13.513Z,17.94
2022-10-08T05:43:42.692Z,17.92
2022-10-08T05:46:11.277Z,17.93
2022-10-08T05:48:40.575Z,17.92
2022-10-08T05:51:12.267Z,17.89
2022-10-08T05:53:41.777Z,17.90
2022-10-08T05:56:11.923Z,17.90
2022-10-08T05:58:41.570Z,17.89
2022-10-08T06:01:13.457Z,17.89
2022-10-08T06:03:42.406Z,17.87
2022-10-08T06:06:13.518Z,17.87
2022-10-08T06:08:42.342Z,17.85
2022-10-08T06:11:10.856Z,17.84
2022-10-08T06:13:39.359Z,17.85
2022-10-08T06:16:10.036Z,17.84
2022-10-08T06:18:41.215Z,17.84
2022-10-08T06:21:12.480Z,17.83
2022-10-08T06:23:45.832Z,17.83
2022-10-08T06:26:14.589Z,17.81
2022-10-08T06:28:43.111Z,17.82
2022-10-08T06:31:12.812Z,17.82
2022-10-08T06:33:42.260Z,17.83
2022-10-08T06:36:17.272Z,17.81
2022-10-08T06:38:50.056Z,17.80
2022-10-08T06:41:18.631Z,17.80
2022-10-08T06:43:47.637Z,17.78
2022-10-08T06:46:16.463Z,17.80
2022-10-08T06:48:45.392Z,17.78
2022-10-08T06:51:18.879Z,17.77
2022-10-08T06:53:52.985Z,17.79
2022-10-08T06:56:22.017Z,17.78
2022-10-08T06:58:50.778Z,17.78
2022-10-08T07:01:22.595Z,17.77
2022-10-08T07:03:52.535Z,17.76
2022-10-08T07:06:22.637Z,17.78
2022-10-08T07:08:52.960Z,17.78
2022-10-08T07:11:22.299Z,17.78
2022-10-08T07:13:50.869Z,17.77
2022-10-08T07:16:21.613Z,17.75
2022-10-08T07:18:51.703Z,17.77
2022-10-08T07:21:23.057Z,17.72
2022-10-08T07:23:51.738Z,17.78
2022-10-08T07:26:21.750Z,17.78
2022-10-08T07:28:52.320Z,17.77
2022-10-08T07:31:22.461Z,17.78
2022-10-08T07:33:51.608Z,17.79
2022-10-08T07:36:21.879Z,17.79
2022-10-08T07:38:55.803Z,17.80
2022-10-08T07:41:25.036Z,17.77
2022-10-08T07:43:54.669Z,17.76
2022-10-08T07:46:23.517Z,17.78
2022-10-08T07:48:52.002Z,17.75
2022-10-08T07:51:21.499Z,17.75
2022-10-08T07:53:50.181Z,17.76
2022-10-08T07:56:21.817Z,17.79
2022-10-08T07:58:50.971Z,17.80
2022-10-08T08:01:22.484Z,17.80
2022-10-08T08:03:55.264Z,17.80
2022-10-08T08:06:25.215Z,17.82
2022-10-08T08:08:55.365Z,17.82
2022-10-08T08:11:26.302Z,17.83
2022-10-08T08:13:54.946Z,17.86
2022-10-08T08:16:26.368Z,17.85
2022-10-08T08:18:56.218Z,17.83
2022-10-08T08:21:26.667Z,17.79
2022-10-08T08:23:57.527Z,17.84
2022-10-08T08:26:29.350Z,17.84
2022-10-08T08:29:00.883Z,17.86
2022-10-08T08:31:30.940Z,17.87
2022-10-08T08:34:01.648Z,17.88
2022-10-08T08:36:31.881Z,17.86
2022-10-08T08:39:01.383Z,17.86
2022-10-08T08:41:46.879Z,17.89
2022-10-08T08:44:20.012Z,17.86
2022-10-08T08:46:53.096Z,17.89
2022-10-08T08:49:28.336Z,17.90
2022-10-08T08:51:58.354Z,17.92
2022-10-08T08:54:27.103Z,17.93
2022-10-08T08:56:57.322Z,17.92
2022-10-08T08:59:28.178Z,17.93
2022-10-08T09:01:59.539Z,17.96
2022-10-08T09:04:35.131Z,17.96
2022-10-08T09:07:07.458Z,17.97
2022-10-08T09:09:39.794Z,17.97
2022-10-08T09:12:20.769Z,17.99
2022-10-08T09:14:54.537Z,17.99
2022-10-08T09:17:30.151Z,18.00
2022-10-08T09:20:00.738Z,18.01
2022-10-08T09:22:31.316Z,18.02
2022-10-08T09:25:01.601Z,18.03
2022-10-08T09:27:50.086Z,18.04
2022-10-08T09:30:30.935Z,18.06
2022-10-08T09:33:01.852Z,18.05
2022-10-08T09:35:32.869Z,18.07
2022-10-08T09:38:05.714Z,18.08
2022-10-08T09:40:35.051Z,18.09
2022-10-08T09:43:16.823Z,18.09
2022-10-08T09:45:47.266Z,18.08
2022-10-08T09:48:21.346Z,18.09
2022-10-08T09:50:56.697Z,18.10
2022-10-08T09:53:28.419Z,18.12
2022-10-08T09:55:59.703Z,18.12
2022-10-08T09:58:32.285Z,18.12
2022-10-08T10:01:07.071Z,18.14
2022-10-08T10:03:36.987Z,18.14
2022-10-08T10:06:06.226Z,18.16
2022-10-08T10:08:52.114Z,18.16
2022-10-08T10:11:25.910Z,18.17
2022-10-08T10:13:56.301Z,18.18
2022-10-08T10:16:26.903Z,18.18
2022-10-08T10:18:58.996Z,18.18
2022-10-08T10:21:38.597Z,18.18
2022-10-08T10:24:22.939Z,18.17
2022-10-08T10:26:56.677Z,18.19
2022-10-08T10:29:30.115Z,18.20
2022-10-08T10:32:03.777Z,18.20
2022-10-08T10:34:36.372Z,18.20
2022-10-08T10:37:08.266Z,18.20
2022-10-08T10:39:42.956Z,18.20
2022-10-08T10:42:16.829Z,18.20
2022-10-08T10:44:54.040Z,18.22
2022-10-08T10:47:31.632Z,18.22
2022-10-08T10:50:02.101Z,18.26
2022-10-08T10:52:42.835Z,18.26
2022-10-08T10:55:21.718Z,18.27
2022-10-08T10:58:10.855Z,18.27
2022-10-08T11:00:47.194Z,18.27
2022-10-08T11:03:20.412Z,18.29
2022-10-08T11:05:52.609Z,18.29
2022-10-08T11:08:31.288Z,18.31
2022-10-08T11:11:11.582Z,18.33
2022-10-08T11:13:52.649Z,18.34
2022-10-08T11:16:34.970Z,18.34
2022-10-08T11:19:05.861Z,18.36
2022-10-08T11:21:49.268Z,18.37
2022-10-08T11:24:29.259Z,18.41
2022-10-08T11:27:02.223Z,18.44
2022-10-08T11:29:35.536Z,18.44
2022-10-08T11:32:12.681Z,18.45
2022-10-08T11:34:44.800Z,18.44
2022-10-08T11:37:17.451Z,18.44
2022-10-08T11:39:53.029Z,18.44
2022-10-08T11:42:27.130Z,18.44
2022-10-08T11:44:55.925Z,18.44
2022-10-08T11:47:55.268Z,18.46
2022-10-08T11:50:28.130Z,18.46
2022-10-08T11:52:59.133Z,18.47
2022-10-08T11:55:32.350Z,18.48
2022-10-08T11:58:08.094Z,18.48
2022-10-08T12:00:40.739Z,18.48
2022-10-08T12:03:23.404Z,18.50
2022-10-08T12:05:54.812Z,18.50
2022-10-08T12:08:48.975Z,18.49
2022-10-08T12:11:54.808Z,18.49
2022-10-08T12:14:47.811Z,18.51
2022-10-08T12:17:17.125Z,18.50
2022-10-08T12:20:03.455Z,18.50
2022-10-08T12:22:46.993Z,18.51
2022-10-08T12:25:39.783Z,18.52
2022-10-08T12:28:54.042Z,18.52
2022-10-08T12:31:29.649Z,18.54
2022-10-08T12:34:02.705Z,18.54
2022-10-08T12:36:40.560Z,18.54
2022-10-08T12:39:14.846Z,18.55
2022-10-08T12:41:52.406Z,18.57
2022-10-08T12:44:31.970Z,18.56
2022-10-08T12:47:07.261Z,18.57
2022-10-08T12:49:39.003Z,18.57
2022-10-08T12:52:11.292Z,18.59
2022-10-08T12:54:41.441Z,18.58
2022-10-08T12:57:11.964Z,18.60
2022-10-08T12:59:41.523Z,18.60
2022-10-08T13:02:28.594Z,18.62
2022-10-08T13:04:57.141Z,18.61
2022-10-08T13:07:29.680Z,18.62
2022-10-08T13:09:59.695Z,18.64
2022-10-08T13:12:28.438Z,18.65
2022-10-08T13:15:01.273Z,18.64
2022-10-08T13:17:31.330Z,18.65
2022-10-08T13:20:08.045Z,18.66
2022-10-08T13:22:38.180Z,18.67
2022-10-08T13:25:28.081Z,18.69
2022-10-08T13:28:14.010Z,18.71
2022-10-08T13:30:44.619Z,18.75
2022-10-08T13:33:17.655Z,18.78
2022-10-08T13:35:52.962Z,18.80
2022-10-08T13:38:26.098Z,18.80
2022-10-08T13:40:58.477Z,18.82
2022-10-08T13:43:27.205Z,18.82
2022-10-08T13:45:55.697Z,18.84
2022-10-08T13:48:24.337Z,18.87
2022-10-08T13:50:53.401Z,18.88
2022-10-08T13:53:24.435Z,18.88
2022-10-08T13:55:52.831Z,18.88
2022-10-08T13:58:21.680Z,18.89
2022-10-08T14:00:50.503Z,18.91
2022-10-08T14:03:18.950Z,18.91
2022-10-08T14:05:48.736Z,18.93
2022-10-08T14:08:19.056Z,18.98
2022-10-08T14:10:49.096Z,18.97
2022-10-08T14:13:18.026Z,19.00
2022-10-08T14:15:46.635Z,19.01
2022-10-08T14:18:15.237Z,19.04
2022-10-08T14:20:43.808Z,19.01
2022-10-08T14:23:14.119Z,18.98
2022-10-08T14:25:42.575Z,19.01
2022-10-08T14:28:13.511Z,18.97
2022-10-08T14:30:42.034Z,18.99
2022-10-08T14:33:11.799Z,18.98
2022-10-08T14:35:40.634Z,18.96
2022-10-08T14:38:09.836Z,18.99
2022-10-08T14:40:39.155Z,18.99
2022-10-08T14:43:07.831Z,19.02
2022-10-08T14:45:37.922Z,19.02
2022-10-08T14:48:06.491Z,19.00
2022-10-08T14:50:35.027Z,19.00
2022-10-08T14:53:04.061Z,19.00
2022-10-08T14:55:41.041Z,18.99
2022-10-08T14:58:21.432Z,18.99
2022-10-08T15:00:55.249Z,18.99
2022-10-08T15:03:24.304Z,19.01
2022-10-08T15:05:54.327Z,19.01
2022-10-08T15:08:22.832Z,19.03
2022-10-08T15:10:51.320Z,19.07
2022-10-08T15:13:20.005Z,19.07
2022-10-08T15:15:48.554Z,19.05
2022-10-08T15:18:19.422Z,19.05
2022-10-08T15:20:54.961Z,19.04
2022-10-08T15:23:23.893Z,19.03
2022-10-08T15:25:57.244Z,19.03
2022-10-08T15:28:27.989Z,19.02
2022-10-08T15:31:08.897Z,19.01
2022-10-08T15:33:43.308Z,18.99
2022-10-08T15:36:19.273Z,18.98
2022-10-08T15:38:48.614Z,18.97
2022-10-08T15:41:18.275Z,18.97
2022-10-08T15:43:47.163Z,18.96
2022-10-08T15:46:17.725Z,18.99
2022-10-08T15:48:54.444Z,19.00
2022-10-08T15:51:24.075Z,18.98
2022-10-08T15:53:52.653Z,19.01
2022-10-08T15:56:21.233Z,19.03
2022-10-08T15:58:51.263Z,19.07
2022-10-08T16:01:23.255Z,19.06
2022-10-08T16:03:55.567Z,19.06
2022-10-08T16:06:26.103Z,19.05
2022-10-08T16:08:54.700Z,19.02
2022-10-08T16:11:25.749Z,19.01
2022-10-08T16:13:56.735Z,19.01
2022-10-08T16:16:25.642Z,19.00
2022-10-08T16:18:58.278Z,18.99
2022-10-08T16:21:27.251Z,18.99
2022-10-08T16:23:56.671Z,18.98
2022-10-08T16:26:26.205Z,18.98
2022-10-08T16:28:56.401Z,18.96
2022-10-08T16:31:26.381Z,18.95
2022-10-08T16:33:57.660Z,18.95
2022-10-08T16:36:27.212Z,18.93
2022-10-08T16:38:56.492Z,18.92
2022-10-08T16:41:26.370Z,18.92
2022-10-08T16:43:56.476Z,18.92
2022-10-08T16:46:27.502Z,18.92
2022-10-08T16:48:59.409Z,18.91
2022-10-08T16:51:29.813Z,18.91
2022-10-08T16:53:59.740Z,18.90
2022-10-08T16:56:30.833Z,18.89
2022-10-08T16:59:01.324Z,18.88
2022-10-08T17:01:30.441Z,18.89
2022-10-08T17:04:00.704Z,18.88
2022-10-08T17:06:30.046Z,18.87
2022-10-08T17:08:59.124Z,18.86
2022-10-08T17:11:27.572Z,18.86
2022-10-08T17:13:57.923Z,18.84
2022-10-08T17:16:28.117Z,18.85
2022-10-08T17:18:58.108Z,18.84
2022-10-08T17:21:29.599Z,18.84
2022-10-08T17:23:58.577Z,18.83
2022-10-08T17:26:28.629Z,18.83
2022-10-08T17:28:57.382Z,18.82
2022-10-08T17:31:28.844Z,18.81
2022-10-08T17:33:57.450Z,18.80
2022-10-08T17:36:28.502Z,18.80
2022-10-08T17:38:58.841Z,18.79
2022-10-08T17:41:28.521Z,18.79
2022-10-08T17:43:58.571Z,18.79
2022-10-08T17:46:29.310Z,18.79
2022-10-08T17:48:58.998Z,18.78
2022-10-08T17:51:30.171Z,18.76
2022-10-08T17:54:00.421Z,18.77
2022-10-08T17:56:29.542Z,18.76
2022-10-08T17:58:58.766Z,18.76
2022-10-08T18:01:29.238Z,18.76
2022-10-08T18:03:59.958Z,18.76
2022-10-08T18:06:30.928Z,18.75
2022-10-08T18:09:01.057Z,18.75
2022-10-08T18:11:31.511Z,18.74
2022-10-08T18:14:00.671Z,18.73
2022-10-08T18:16:29.503Z,18.72
2022-10-08T18:18:58.084Z,18.73
2022-10-08T18:21:27.429Z,18.73
2022-10-08T18:23:59.059Z,18.71
2022-10-08T18:26:28.766Z,18.70
2022-10-08T18:28:58.432Z,18.69
2022-10-08T18:31:28.677Z,18.70
2022-10-08T18:33:59.899Z,18.69
2022-10-08T18:36:30.088Z,18.69
2022-10-08T18:39:01.551Z,18.68
2022-10-08T18:41:31.501Z,18.68
2022-10-08T18:44:00.774Z,18.67
2022-10-08T18:46:29.847Z,18.67
2022-10-08T18:48:58.471Z,18.66
2022-10-08T18:51:28.484Z,18.66
2022-10-08T18:53:58.286Z,18.66
2022-10-08T18:56:29.737Z,18.66
2022-10-08T18:58:59.489Z,18.65
2022-10-08T19:01:29.939Z,18.63
2022-10-08T19:03:59.962Z,18.64
2022-10-08T19:06:31.378Z,18.63
2022-10-08T19:09:01.487Z,18.61
2022-10-08T19:11:33.828Z,18.62
2022-10-08T19:14:02.720Z,18.63
2022-10-08T19:16:31.541Z,18.60
2022-10-08T19:19:02.403Z,18.60
2022-10-08T19:21:32.304Z,18.59
2022-10-08T19:24:01.335Z,18.59
2022-10-08T19:26:31.503Z,18.58
2022-10-08T19:29:01.396Z,18.57
2022-10-08T19:31:31.595Z,18.56
2022-10-08T19:34:01.371Z,18.54
2022-10-08T19:36:32.434Z,18.54
2022-10-08T19:39:02.194Z,18.53
2022-10-08T19:41:32.305Z,18.51
2022-10-08T19:44:01.577Z,18.51
2022-10-08T19:46:31.090Z,18.51
2022-10-08T19:49:01.872Z,18.50
2022-10-08T19:51:31.859Z,18.50
2022-10-08T19:54:01.716Z,18.49
2022-10-08T19:56:32.040Z,18.47
2022-10-08T19:59:01.901Z,18.47
2022-10-08T20:01:32.638Z,18.46
2022-10-08T20:04:02.608Z,18.47
2022-10-08T20:06:32.810Z,18.47
2022-10-08T20:09:03.083Z,18.45
2022-10-08T20:11:33.791Z,18.46
2022-10-08T20:14:02.522Z,18.45
2022-10-08T20:16:32.366Z,18.44
2022-10-08T20:19:02.463Z,18.45
2022-10-08T20:21:33.669Z,18.44
2022-10-08T20:24:02.597Z,18.45
2022-10-08T20:26:33.374Z,18.44
2022-10-08T20:29:04.070Z,18.43
2022-10-08T20:31:34.152Z,18.43
2022-10-08T20:34:03.942Z,18.41
2022-10-08T20:36:33.198Z,18.42
2022-10-08T20:39:02.043Z,18.41
2022-10-08T20:41:31.531Z,18.41
2022-10-08T20:44:03.092Z,18.40
2022-10-08T20:46:32.617Z,18.37
2022-10-08T20:49:01.584Z,18.38
2022-10-08T20:51:31.049Z,18.37
2022-10-08T20:54:01.581Z,18.37
2022-10-08T20:56:34.712Z,18.37
2022-10-08T20:59:07.928Z,18.37
2022-10-08T21:01:39.047Z,18.35
2022-10-08T21:04:08.525Z,18.35
2022-10-08T21:06:39.176Z,18.35
2022-10-08T21:09:07.977Z,18.33
2022-10-08T21:11:37.324Z,18.33
2022-10-08T21:14:08.939Z,18.33
2022-10-08T21:16:39.335Z,18.34
2022-10-08T21:19:09.100Z,18.32
2022-10-08T21:21:37.660Z,18.32
2022-10-08T21:24:06.847Z,18.31
2022-10-08T21:26:37.210Z,18.29
2022-10-08T21:29:08.882Z,18.29
2022-10-08T21:31:39.576Z,18.29
2022-10-08T21:34:08.583Z,18.29
2022-10-08T21:36:38.651Z,18.28
2022-10-08T21:39:08.925Z,18.28
2022-10-08T21:41:38.428Z,18.28
2022-10-08T21:44:09.242Z,18.27
2022-10-08T21:46:40.219Z,18.26
2022-10-08T21:49:11.694Z,18.25
2022-10-08T21:51:40.204Z,18.26
2022-10-08T21:54:10.727Z,18.25
2022-10-08T21:56:40.293Z,18.23
2022-10-08T21:59:12.514Z,18.25
2022-10-08T22:01:42.581Z,18.24
2022-10-08T22:04:12.468Z,18.23
2022-10-08T22:06:43.038Z,18.21
2022-10-08T22:09:13.953Z,18.21
2022-10-08T22:11:42.992Z,18.20
2022-10-08T22:14:12.935Z,18.19
2022-10-08T22:16:41.607Z,18.19
2022-10-08T22:19:10.175Z,18.19
2022-10-08T22:21:38.972Z,18.19
2022-10-08T22:24:07.667Z,18.18
2022-10-08T22:26:37.750Z,18.17
2022-10-08T22:29:06.805Z,18.17
2022-10-08T22:31:36.963Z,18.16
2022-10-08T22:34:05.646Z,18.16
2022-10-08T22:36:37.640Z,18.15
2022-10-08T22:39:06.533Z,18.14
2022-10-08T22:41:35.478Z,18.14
2022-10-08T22:44:04.905Z,18.15
2022-10-08T22:46:38.645Z,18.13
2022-10-08T22:49:08.811Z,18.13
2022-10-08T22:51:37.898Z,18.12
2022-10-08T22:54:06.553Z,18.12
2022-10-08T22:56:37.799Z,18.11
2022-10-08T22:59:06.246Z,18.10
2022-10-08T23:01:34.850Z,18.10
2022-10-08T23:04:04.762Z,18.10
2022-10-08T23:06:34.731Z,18.11
2022-10-08T23:09:06.072Z,18.09
2022-10-08T23:11:35.182Z,18.08
2022-10-08T23:14:04.132Z,18.08
2022-10-08T23:16:33.926Z,18.08
2022-10-08T23:19:05.798Z,18.07
2022-10-08T23:21:34.608Z,18.06
2022-10-08T23:24:03.380Z,18.06
2022-10-08T23:26:32.306Z,18.05
2022-10-08T23:29:01.727Z,18.05
2022-10-08T23:31:31.777Z,18.03
2022-10-08T23:34:01.065Z,18.03
2022-10-08T23:36:32.847Z,18.03
2022-10-08T23:39:01.742Z,18.02
2022-10-08T23:41:30.185Z,18.02
2022-10-08T23:43:59.162Z,18.01
2022-10-08T23:46:29.109Z,18.00
2022-10-08T23:48:58.350Z,18.00
2022-10-08T23:51:28.133Z,18.00
2022-10-08T23:53:58.094Z,18.00
2022-10-08T23:56:26.583Z,17.98
2022-10-08T23:58:55.065Z,17.98
